sensor_id;sensor_type;location;lat;lon;timestamp;temperature;humidity
23207;DHT22;11773;52.570;13.052;2023-04-24T00:01:46;12.90;99.90
23207;DHT22;11773;52.570;13.052;2023-04-24T00:04:16;12.90;99.90
23207;DHT22;11773;52.570;13.052;2023-04-24T00:06:46;12.90;99.90
23207;DHT22;11773;52.570;13.052;2023-04-24T00:09:17;12.90;99.90
23207;DHT22;11773;52.570;13.052;2023-04-24T00:11:46;13.10;99.90
23207;DHT22;11773;52.570;13.052;2023-04-24T00:14:16;13.10;99.90
23207;DHT22;11773;52.570;13.052;2023-04-24T00:16:45;12.90;99.90
23207;DHT22;11773;52.570;13.052;2023-04-24T00:19:15;12.80;99.90
23207;DHT22;11773;52.570;13.052;2023-04-24T00:21:47;12.80;99.90
23207;DHT22;11773;52.570;13.052;2023-04-24T00:24:19;12.80;99.90
23207;DHT22;11773;52.570;13.052;2023-04-24T00:26:49;12.90;99.90
23207;DHT22;11773;52.570;13.052;2023-04-24T00:29:18;12.90;99.90
23207;DHT22;11773;52.570;13.052;2023-04-24T00:31:48;12.90;99.90
23207;DHT22;11773;52.570;13.052;2023-04-24T00:34:18;13.00;99.90
23207;DHT22;11773;52.570;13.052;2023-04-24T00:36:47;12.90;99.90
23207;DHT22;11773;52.570;13.052;2023-04-24T00:39:19;12.70;99.90
23207;DHT22;11773;52.570;13.052;2023-04-24T00:41:49;12.80;99.90
23207;DHT22;11773;52.570;13.052;2023-04-24T00:44:20;12.90;99.90
23207;DHT22;11773;52.570;13.052;2023-04-24T00:46:50;13.00;99.90
23207;DHT22;11773;52.570;13.052;2023-04-24T00:49:22;12.90;99.90
23207;DHT22;11773;52.570;13.052;2023-04-24T00:51:51;13.00;99.90
23207;DHT22;11773;52.570;13.052;2023-04-24T00:54:21;12.90;99.90
23207;DHT22;11773;52.570;13.052;2023-04-24T00:56:51;13.00;99.90
23207;DHT22;11773;52.570;13.052;2023-04-24T00:59:20;13.00;99.90
23207;DHT22;11773;52.570;13.052;2023-04-24T01:01:50;13.00;99.90
23207;DHT22;11773;52.570;13.052;2023-04-24T01:04:20;13.10;99.90
23207;DHT22;11773;52.570;13.052;2023-04-24T01:06:50;13.10;99.90
23207;DHT22;11773;52.570;13.052;2023-04-24T01:09:23;13.10;99.90
23207;DHT22;11773;52.570;13.052;2023-04-24T01:11:53;13.10;99.90
23207;DHT22;11773;52.570;13.052;2023-04-24T01:14:24;13.20;99.90
23207;DHT22;11773;52.570;13.052;2023-04-24T01:16:53;13.20;99.90
23207;DHT22;11773;52.570;13.052;2023-04-24T01:19:25;13.10;99.90
23207;DHT22;11773;52.570;13.052;2023-04-24T01:21:57;13.20;99.90
23207;DHT22;11773;52.570;13.052;2023-04-24T01:24:27;13.10;99.90
23207;DHT22;11773;52.570;13.052;2023-04-24T01:26:57;13.20;99.90
23207;DHT22;11773;52.570;13.052;2023-04-24T01:29:28;13.20;99.90
23207;DHT22;11773;52.570;13.052;2023-04-24T01:31:58;13.10;99.90
23207;DHT22;11773;52.570;13.052;2023-04-24T01:34:28;13.10;99.90
23207;DHT22;11773;52.570;13.052;2023-04-24T01:36:58;13.10;99.90
23207;DHT22;11773;52.570;13.052;2023-04-24T01:39:28;13.10;99.90
23207;DHT22;11773;52.570;13.052;2023-04-24T01:41:57;13.20;99.90
23207;DHT22;11773;52.570;13.052;2023-04-24T01:44:30;13.20;99.90
23207;DHT22;11773;52.570;13.052;2023-04-24T01:47:01;13.20;99.90
23207;DHT22;11773;52.570;13.052;2023-04-24T01:49:32;13.20;99.90
23207;DHT22;11773;52.570;13.052;2023-04-24T01:52:02;13.30;99.90
23207;DHT22;11773;52.570;13.052;2023-04-24T01:54:31;13.10;99.90
23207;DHT22;11773;52.570;13.052;2023-04-24T01:57:01;13.10;99.90
23207;DHT22;11773;52.570;13.052;2023-04-24T01:59:31;13.10;99.90
23207;DHT22;11773;52.570;13.052;2023-04-24T02:02:02;13.10;99.90
23207;DHT22;11773;52.570;13.052;2023-04-24T02:04:32;13.10;99.90
23207;DHT22;11773;52.570;13.052;2023-04-24T02:07:01;13.20;99.90
23207;DHT22;11773;52.570;13.052;2023-04-24T02:09:31;13.20;99.90
23207;DHT22;11773;52.570;13.052;2023-04-24T02:12:00;13.20;99.90
23207;DHT22;11773;52.570;13.052;2023-04-24T02:14:30;13.20;99.90
23207;DHT22;11773;52.570;13.052;2023-04-24T02:17:00;13.10;99.90
23207;DHT22;11773;52.570;13.052;2023-04-24T02:19:29;13.00;99.90
23207;DHT22;11773;52.570;13.052;2023-04-24T02:21:59;13.00;99.90
23207;DHT22;11773;52.570;13.052;2023-04-24T02:24:28;13.10;99.90
23207;DHT22;11773;52.570;13.052;2023-04-24T02:26:58;13.00;99.90
23207;DHT22;11773;52.570;13.052;2023-04-24T02:29:27;13.20;99.90
23207;DHT22;11773;52.570;13.052;2023-04-24T02:31:58;13.10;99.90
23207;DHT22;11773;52.570;13.052;2023-04-24T02:34:27;13.10;99.90
23207;DHT22;11773;52.570;13.052;2023-04-24T02:36:57;13.20;99.90
23207;DHT22;11773;52.570;13.052;2023-04-24T02:39:26;13.30;99.90
23207;DHT22;11773;52.570;13.052;2023-04-24T02:41:56;13.30;99.90
23207;DHT22;11773;52.570;13.052;2023-04-24T02:44:25;13.30;99.90
23207;DHT22;11773;52.570;13.052;2023-04-24T02:46:55;13.20;99.90
23207;DHT22;11773;52.570;13.052;2023-04-24T02:49:24;13.20;99.90
23207;DHT22;11773;52.570;13.052;2023-04-24T02:51:54;13.20;99.90
23207;DHT22;11773;52.570;13.052;2023-04-24T02:54:24;13.20;99.90
23207;DHT22;11773;52.570;13.052;2023-04-24T02:56:53;13.20;99.90
23207;DHT22;11773;52.570;13.052;2023-04-24T02:59:24;13.30;99.90
23207;DHT22;11773;52.570;13.052;2023-04-24T03:01:54;13.30;99.90
23207;DHT22;11773;52.570;13.052;2023-04-24T03:04:24;13.30;99.90
23207;DHT22;11773;52.570;13.052;2023-04-24T03:06:53;13.30;99.90
23207;DHT22;11773;52.570;13.052;2023-04-24T03:09:24;13.30;99.90
23207;DHT22;11773;52.570;13.052;2023-04-24T03:11:53;13.30;99.90
23207;DHT22;11773;52.570;13.052;2023-04-24T03:14:24;13.30;99.90
23207;DHT22;11773;52.570;13.052;2023-04-24T03:16:53;13.30;99.90
23207;DHT22;11773;52.570;13.052;2023-04-24T03:19:23;13.30;99.90
23207;DHT22;11773;52.570;13.052;2023-04-24T03:21:52;13.40;99.90
23207;DHT22;11773;52.570;13.052;2023-04-24T03:24:22;13.30;99.90
23207;DHT22;11773;52.570;13.052;2023-04-24T03:26:51;13.30;99.90
23207;DHT22;11773;52.570;13.052;2023-04-24T03:29:21;13.30;99.90
23207;DHT22;11773;52.570;13.052;2023-04-24T03:31:50;13.30;99.90
23207;DHT22;11773;52.570;13.052;2023-04-24T03:34:20;13.30;99.90
23207;DHT22;11773;52.570;13.052;2023-04-24T03:36:50;13.40;99.90
23207;DHT22;11773;52.570;13.052;2023-04-24T03:39:20;13.40;99.90
23207;DHT22;11773;52.570;13.052;2023-04-24T03:41:49;13.40;99.90
23207;DHT22;11773;52.570;13.052;2023-04-24T03:44:19;13.30;99.90
23207;DHT22;11773;52.570;13.052;2023-04-24T03:46:48;13.30;99.90
23207;DHT22;11773;52.570;13.052;2023-04-24T03:49:18;13.30;99.90
23207;DHT22;11773;52.570;13.052;2023-04-24T03:51:48;13.30;99.90
23207;DHT22;11773;52.570;13.052;2023-04-24T03:54:18;13.40;99.90
23207;DHT22;11773;52.570;13.052;2023-04-24T03:56:48;13.40;99.90
23207;DHT22;11773;52.570;13.052;2023-04-24T03:59:18;13.40;99.90
23207;DHT22;11773;52.570;13.052;2023-04-24T04:01:48;13.40;99.90
23207;DHT22;11773;52.570;13.052;2023-04-24T04:04:18;13.40;99.90
23207;DHT22;11773;52.570;13.052;2023-04-24T04:06:48;13.40;99.90
23207;DHT22;11773;52.570;13.052;2023-04-24T04:09:17;13.40;99.90
23207;DHT22;11773;52.570;13.052;2023-04-24T04:11:47;13.40;99.90
23207;DHT22;11773;52.570;13.052;2023-04-24T04:14:16;13.40;99.90
23207;DHT22;11773;52.570;13.052;2023-04-24T04:16:46;13.30;99.90
23207;DHT22;11773;52.570;13.052;2023-04-24T04:19:15;13.40;99.90
23207;DHT22;11773;52.570;13.052;2023-04-24T04:21:45;13.40;99.90
23207;DHT22;11773;52.570;13.052;2023-04-24T04:24:16;13.40;99.90
23207;DHT22;11773;52.570;13.052;2023-04-24T04:26:46;13.40;99.90
23207;DHT22;11773;52.570;13.052;2023-04-24T04:29:18;13.30;99.90
23207;DHT22;11773;52.570;13.052;2023-04-24T04:31:47;13.10;99.90
23207;DHT22;11773;52.570;13.052;2023-04-24T04:34:17;13.20;99.90
23207;DHT22;11773;52.570;13.052;2023-04-24T04:36:47;13.20;99.90
23207;DHT22;11773;52.570;13.052;2023-04-24T04:39:16;13.30;99.90
23207;DHT22;11773;52.570;13.052;2023-04-24T04:41:47;13.40;99.90
23207;DHT22;11773;52.570;13.052;2023-04-24T04:44:17;13.40;99.90
23207;DHT22;11773;52.570;13.052;2023-04-24T04:46:46;13.60;99.90
23207;DHT22;11773;52.570;13.052;2023-04-24T04:49:16;13.60;99.90
23207;DHT22;11773;52.570;13.052;2023-04-24T04:51:46;13.60;99.90
23207;DHT22;11773;52.570;13.052;2023-04-24T04:54:16;13.70;99.90
23207;DHT22;11773;52.570;13.052;2023-04-24T04:56:45;13.70;99.90
23207;DHT22;11773;52.570;13.052;2023-04-24T04:59:15;13.80;99.90
23207;DHT22;11773;52.570;13.052;2023-04-24T05:01:44;13.80;99.90
23207;DHT22;11773;52.570;13.052;2023-04-24T05:04:14;14.00;99.90
23207;DHT22;11773;52.570;13.052;2023-04-24T05:06:43;14.00;99.90
23207;DHT22;11773;52.570;13.052;2023-04-24T05:09:14;13.90;99.90
23207;DHT22;11773;52.570;13.052;2023-04-24T05:11:44;14.10;99.90
23207;DHT22;11773;52.570;13.052;2023-04-24T05:14:13;14.30;99.90
23207;DHT22;11773;52.570;13.052;2023-04-24T05:16:45;14.30;99.90
23207;DHT22;11773;52.570;13.052;2023-04-24T05:19:14;14.50;99.90
23207;DHT22;11773;52.570;13.052;2023-04-24T05:21:44;14.60;99.90
23207;DHT22;11773;52.570;13.052;2023-04-24T05:24:13;14.60;99.90
23207;DHT22;11773;52.570;13.052;2023-04-24T05:26:43;14.60;99.90
23207;DHT22;11773;52.570;13.052;2023-04-24T05:29:13;14.70;99.90
23207;DHT22;11773;52.570;13.052;2023-04-24T05:31:43;15.00;99.90
23207;DHT22;11773;52.570;13.052;2023-04-24T05:34:12;15.00;99.90
23207;DHT22;11773;52.570;13.052;2023-04-24T05:36:43;15.40;99.90
23207;DHT22;11773;52.570;13.052;2023-04-24T05:39:14;15.30;99.90
23207;DHT22;11773;52.570;13.052;2023-04-24T05:41:44;15.40;99.90
23207;DHT22;11773;52.570;13.052;2023-04-24T05:44:13;15.40;99.90
23207;DHT22;11773;52.570;13.052;2023-04-24T05:46:43;15.70;99.90
23207;DHT22;11773;52.570;13.052;2023-04-24T05:49:12;15.80;99.90
23207;DHT22;11773;52.570;13.052;2023-04-24T05:51:42;16.00;99.90
23207;DHT22;11773;52.570;13.052;2023-04-24T05:54:11;16.30;99.90
23207;DHT22;11773;52.570;13.052;2023-04-24T05:56:41;16.60;99.90
23207;DHT22;11773;52.570;13.052;2023-04-24T05:59:10;17.00;99.90
23207;DHT22;11773;52.570;13.052;2023-04-24T06:01:40;17.50;99.90
23207;DHT22;11773;52.570;13.052;2023-04-24T06:04:10;17.40;99.90
23207;DHT22;11773;52.570;13.052;2023-04-24T06:06:41;17.70;99.90
23207;DHT22;11773;52.570;13.052;2023-04-24T06:09:11;18.00;99.90
23207;DHT22;11773;52.570;13.052;2023-04-24T06:11:40;18.00;99.90
23207;DHT22;11773;52.570;13.052;2023-04-24T06:14:10;18.10;99.90
23207;DHT22;11773;52.570;13.052;2023-04-24T06:16:42;18.60;99.90
23207;DHT22;11773;52.570;13.052;2023-04-24T06:19:11;18.80;99.90
23207;DHT22;11773;52.570;13.052;2023-04-24T06:21:41;19.10;99.90
23207;DHT22;11773;52.570;13.052;2023-04-24T06:24:10;19.40;99.90
23207;DHT22;11773;52.570;13.052;2023-04-24T06:26:42;19.10;99.90
23207;DHT22;11773;52.570;13.052;2023-04-24T06:29:11;18.90;99.90
23207;DHT22;11773;52.570;13.052;2023-04-24T06:31:41;18.70;99.90
23207;DHT22;11773;52.570;13.052;2023-04-24T06:34:10;18.40;99.90
23207;DHT22;11773;52.570;13.052;2023-04-24T06:36:40;18.40;99.90
23207;DHT22;11773;52.570;13.052;2023-04-24T06:39:09;18.40;99.90
23207;DHT22;11773;52.570;13.052;2023-04-24T06:41:39;18.30;99.90
23207;DHT22;11773;52.570;13.052;2023-04-24T06:44:09;18.10;99.90
23207;DHT22;11773;52.570;13.052;2023-04-24T06:46:38;18.30;99.90
23207;DHT22;11773;52.570;13.052;2023-04-24T06:49:08;18.30;99.90
23207;DHT22;11773;52.570;13.052;2023-04-24T06:51:38;18.40;99.90
23207;DHT22;11773;52.570;13.052;2023-04-24T06:54:07;18.30;99.90
23207;DHT22;11773;52.570;13.052;2023-04-24T06:56:37;18.30;99.90
23207;DHT22;11773;52.570;13.052;2023-04-24T06:59:07;18.40;99.90
23207;DHT22;11773;52.570;13.052;2023-04-24T07:01:36;18.50;99.90
23207;DHT22;11773;52.570;13.052;2023-04-24T07:04:06;19.00;99.90
23207;DHT22;11773;52.570;13.052;2023-04-24T07:06:36;19.50;99.90
23207;DHT22;11773;52.570;13.052;2023-04-24T07:09:06;19.80;99.90
23207;DHT22;11773;52.570;13.052;2023-04-24T07:11:37;20.00;99.90
23207;DHT22;11773;52.570;13.052;2023-04-24T07:14:08;19.90;99.90
23207;DHT22;11773;52.570;13.052;2023-04-24T07:16:38;19.90;99.90
23207;DHT22;11773;52.570;13.052;2023-04-24T07:19:08;19.90;99.90
23207;DHT22;11773;52.570;13.052;2023-04-24T07:21:37;19.80;99.90
23207;DHT22;11773;52.570;13.052;2023-04-24T07:24:07;19.60;99.90
23207;DHT22;11773;52.570;13.052;2023-04-24T07:26:40;19.80;99.90
23207;DHT22;11773;52.570;13.052;2023-04-24T07:29:10;20.00;99.90
23207;DHT22;11773;52.570;13.052;2023-04-24T07:31:40;20.30;99.90
23207;DHT22;11773;52.570;13.052;2023-04-24T07:34:09;20.40;99.90
23207;DHT22;11773;52.570;13.052;2023-04-24T07:36:39;20.40;99.90
23207;DHT22;11773;52.570;13.052;2023-04-24T07:39:10;20.30;99.90
23207;DHT22;11773;52.570;13.052;2023-04-24T07:41:40;20.60;99.90
23207;DHT22;11773;52.570;13.052;2023-04-24T07:44:09;20.80;99.90
23207;DHT22;11773;52.570;13.052;2023-04-24T07:46:39;20.90;99.90
23207;DHT22;11773;52.570;13.052;2023-04-24T07:49:09;20.90;99.90
23207;DHT22;11773;52.570;13.052;2023-04-24T07:51:41;20.50;99.90
23207;DHT22;11773;52.570;13.052;2023-04-24T07:54:10;20.70;99.90
23207;DHT22;11773;52.570;13.052;2023-04-24T07:56:41;20.70;99.90
23207;DHT22;11773;52.570;13.052;2023-04-24T07:59:11;20.40;99.90
23207;DHT22;11773;52.570;13.052;2023-04-24T08:01:41;20.60;99.90
23207;DHT22;11773;52.570;13.052;2023-04-24T08:04:10;20.70;99.90
23207;DHT22;11773;52.570;13.052;2023-04-24T08:06:40;20.30;99.90
23207;DHT22;11773;52.570;13.052;2023-04-24T08:09:10;20.30;99.90
23207;DHT22;11773;52.570;13.052;2023-04-24T08:11:39;20.10;99.90
23207;DHT22;11773;52.570;13.052;2023-04-24T08:14:09;19.90;99.90
23207;DHT22;11773;52.570;13.052;2023-04-24T08:16:40;19.80;99.90
23207;DHT22;11773;52.570;13.052;2023-04-24T08:19:10;19.90;99.90
23207;DHT22;11773;52.570;13.052;2023-04-24T08:21:40;20.20;99.90
23207;DHT22;11773;52.570;13.052;2023-04-24T08:24:09;20.10;99.90
23207;DHT22;11773;52.570;13.052;2023-04-24T08:26:39;20.00;99.90
23207;DHT22;11773;52.570;13.052;2023-04-24T08:29:09;19.70;99.90
23207;DHT22;11773;52.570;13.052;2023-04-24T08:31:38;19.90;99.90
23207;DHT22;11773;52.570;13.052;2023-04-24T08:34:09;19.70;99.90
23207;DHT22;11773;52.570;13.052;2023-04-24T08:36:39;19.90;99.90
23207;DHT22;11773;52.570;13.052;2023-04-24T08:39:11;19.80;99.90
23207;DHT22;11773;52.570;13.052;2023-04-24T08:41:42;19.90;99.90
23207;DHT22;11773;52.570;13.052;2023-04-24T08:44:13;20.00;99.90
23207;DHT22;11773;52.570;13.052;2023-04-24T08:46:44;20.00;99.90
23207;DHT22;11773;52.570;13.052;2023-04-24T08:49:16;20.00;99.90
23207;DHT22;11773;52.570;13.052;2023-04-24T08:51:48;19.80;99.90
23207;DHT22;11773;52.570;13.052;2023-04-24T08:54:19;19.70;99.90
23207;DHT22;11773;52.570;13.052;2023-04-24T08:56:50;19.50;99.90
23207;DHT22;11773;52.570;13.052;2023-04-24T08:59:22;19.50;99.90
23207;DHT22;11773;52.570;13.052;2023-04-24T09:01:52;19.40;99.90
23207;DHT22;11773;52.570;13.052;2023-04-24T09:04:24;19.30;99.90
23207;DHT22;11773;52.570;13.052;2023-04-24T09:06:56;19.40;99.90
23207;DHT22;11773;52.570;13.052;2023-04-24T09:09:30;19.50;99.90
23207;DHT22;11773;52.570;13.052;2023-04-24T09:12:01;19.30;99.90
23207;DHT22;11773;52.570;13.052;2023-04-24T09:14:31;19.30;99.90
23207;DHT22;11773;52.570;13.052;2023-04-24T09:17:03;19.10;99.90
23207;DHT22;11773;52.570;13.052;2023-04-24T09:19:34;18.90;99.90
23207;DHT22;11773;52.570;13.052;2023-04-24T09:22:08;18.80;99.90
23207;DHT22;11773;52.570;13.052;2023-04-24T09:24:39;19.00;99.90
23207;DHT22;11773;52.570;13.052;2023-04-24T09:27:11;19.10;99.90
23207;DHT22;11773;52.570;13.052;2023-04-24T09:29:54;19.30;99.90
23207;DHT22;11773;52.570;13.052;2023-04-24T09:32:25;18.80;99.90
23207;DHT22;11773;52.570;13.052;2023-04-24T09:35:08;19.10;99.90
23207;DHT22;11773;52.570;13.052;2023-04-24T09:37:41;19.30;99.90
23207;DHT22;11773;52.570;13.052;2023-04-24T09:40:17;19.00;99.90
23207;DHT22;11773;52.570;13.052;2023-04-24T09:42:55;18.90;99.90
23207;DHT22;11773;52.570;13.052;2023-04-24T09:45:37;19.10;99.90
23207;DHT22;11773;52.570;13.052;2023-04-24T09:48:10;19.10;99.90
23207;DHT22;11773;52.570;13.052;2023-04-24T09:50:45;19.10;99.90
23207;DHT22;11773;52.570;13.052;2023-04-24T09:53:15;19.00;99.90
23207;DHT22;11773;52.570;13.052;2023-04-24T09:55:46;19.30;99.90
23207;DHT22;11773;52.570;13.052;2023-04-24T09:58:16;19.40;99.90
23207;DHT22;11773;52.570;13.052;2023-04-24T10:00:46;19.40;99.90
23207;DHT22;11773;52.570;13.052;2023-04-24T10:03:17;19.50;99.90
23207;DHT22;11773;52.570;13.052;2023-04-24T10:05:47;19.30;99.90
23207;DHT22;11773;52.570;13.052;2023-04-24T10:08:16;19.20;99.90
23207;DHT22;11773;52.570;13.052;2023-04-24T10:10:46;19.10;99.90
23207;DHT22;11773;52.570;13.052;2023-04-24T10:13:16;19.10;99.90
23207;DHT22;11773;52.570;13.052;2023-04-24T10:15:46;19.00;99.90
23207;DHT22;11773;52.570;13.052;2023-04-24T10:18:18;18.70;99.90
23207;DHT22;11773;52.570;13.052;2023-04-24T10:20:49;18.80;99.90
23207;DHT22;11773;52.570;13.052;2023-04-24T10:23:19;19.10;99.90
23207;DHT22;11773;52.570;13.052;2023-04-24T10:25:49;19.20;99.90
23207;DHT22;11773;52.570;13.052;2023-04-24T10:28:21;19.00;99.90
23207;DHT22;11773;52.570;13.052;2023-04-24T10:30:51;19.00;99.90
23207;DHT22;11773;52.570;13.052;2023-04-24T10:33:23;19.00;99.90
23207;DHT22;11773;52.570;13.052;2023-04-24T10:35:55;19.30;99.90
23207;DHT22;11773;52.570;13.052;2023-04-24T10:38:27;19.40;99.90
23207;DHT22;11773;52.570;13.052;2023-04-24T10:41:10;19.60;99.90
23207;DHT22;11773;52.570;13.052;2023-04-24T10:43:47;19.60;99.90
23207;DHT22;11773;52.570;13.052;2023-04-24T10:46:21;19.60;99.90
23207;DHT22;11773;52.570;13.052;2023-04-24T10:48:53;19.80;99.90
23207;DHT22;11773;52.570;13.052;2023-04-24T10:51:24;19.60;99.90
23207;DHT22;11773;52.570;13.052;2023-04-24T10:53:57;19.70;99.90
23207;DHT22;11773;52.570;13.052;2023-04-24T10:56:27;19.50;99.90
23207;DHT22;11773;52.570;13.052;2023-04-24T10:58:58;19.50;99.90
23207;DHT22;11773;52.570;13.052;2023-04-24T11:01:30;19.20;99.90
23207;DHT22;11773;52.570;13.052;2023-04-24T11:04:03;18.80;99.90
23207;DHT22;11773;52.570;13.052;2023-04-24T11:06:37;18.60;99.90
23207;DHT22;11773;52.570;13.052;2023-04-24T11:09:09;18.70;99.90
23207;DHT22;11773;52.570;13.052;2023-04-24T11:11:45;18.40;99.90
23207;DHT22;11773;52.570;13.052;2023-04-24T11:14:16;18.50;99.90
23207;DHT22;11773;52.570;13.052;2023-04-24T11:16:53;18.80;99.90
23207;DHT22;11773;52.570;13.052;2023-04-24T11:19:25;18.90;99.90
23207;DHT22;11773;52.570;13.052;2023-04-24T11:21:59;18.90;99.90
23207;DHT22;11773;52.570;13.052;2023-04-24T11:24:38;19.10;99.90
23207;DHT22;11773;52.570;13.052;2023-04-24T11:27:15;18.70;99.90
23207;DHT22;11773;52.570;13.052;2023-04-24T11:29:49;18.80;99.90
23207;DHT22;11773;52.570;13.052;2023-04-24T11:35:15;18.90;99.90
23207;DHT22;11773;52.570;13.052;2023-04-24T11:37:53;18.90;99.90
23207;DHT22;11773;52.570;13.052;2023-04-24T11:40:24;19.00;99.90
23207;DHT22;11773;52.570;13.052;2023-04-24T11:42:54;18.90;99.90
23207;DHT22;11773;52.570;13.052;2023-04-24T11:45:26;19.10;99.90
23207;DHT22;11773;52.570;13.052;2023-04-24T11:47:57;19.40;99.90
23207;DHT22;11773;52.570;13.052;2023-04-24T11:50:27;19.40;99.90
23207;DHT22;11773;52.570;13.052;2023-04-24T11:52:57;19.40;99.90
23207;DHT22;11773;52.570;13.052;2023-04-24T11:55:29;19.30;99.90
23207;DHT22;11773;52.570;13.052;2023-04-24T11:57:59;19.30;99.90
23207;DHT22;11773;52.570;13.052;2023-04-24T12:00:30;19.40;99.90
23207;DHT22;11773;52.570;13.052;2023-04-24T12:03:06;19.30;99.90
23207;DHT22;11773;52.570;13.052;2023-04-24T12:05:40;19.30;99.90
23207;DHT22;11773;52.570;13.052;2023-04-24T12:08:10;18.90;99.90
23207;DHT22;11773;52.570;13.052;2023-04-24T12:10:39;19.00;99.90
23207;DHT22;11773;52.570;13.052;2023-04-24T12:13:09;19.00;99.90
23207;DHT22;11773;52.570;13.052;2023-04-24T12:15:40;18.70;99.90
23207;DHT22;11773;52.570;13.052;2023-04-24T12:18:12;18.70;99.90
23207;DHT22;11773;52.570;13.052;2023-04-24T12:20:44;18.80;99.90
23207;DHT22;11773;52.570;13.052;2023-04-24T12:23:13;18.80;99.90
23207;DHT22;11773;52.570;13.052;2023-04-24T12:25:43;18.60;99.90
23207;DHT22;11773;52.570;13.052;2023-04-24T12:28:13;18.60;99.90
23207;DHT22;11773;52.570;13.052;2023-04-24T12:30:49;18.60;99.90
23207;DHT22;11773;52.570;13.052;2023-04-24T12:33:20;18.50;99.90
23207;DHT22;11773;52.570;13.052;2023-04-24T12:35:53;18.40;99.90
23207;DHT22;11773;52.570;13.052;2023-04-24T12:38:26;18.50;99.90
23207;DHT22;11773;52.570;13.052;2023-04-24T12:41:10;18.70;99.90
23207;DHT22;11773;52.570;13.052;2023-04-24T12:43:36;18.70;99.90
23207;DHT22;11773;52.570;13.052;2023-04-24T12:46:06;18.60;99.90
23207;DHT22;11773;52.570;13.052;2023-04-24T12:48:36;18.50;99.90
23207;DHT22;11773;52.570;13.052;2023-04-24T12:51:06;18.50;99.90
23207;DHT22;11773;52.570;13.052;2023-04-24T12:53:35;18.50;99.90
23207;DHT22;11773;52.570;13.052;2023-04-24T12:56:05;18.50;99.90
23207;DHT22;11773;52.570;13.052;2023-04-24T12:58:35;18.30;99.90
23207;DHT22;11773;52.570;13.052;2023-04-24T13:01:04;18.40;99.90
23207;DHT22;11773;52.570;13.052;2023-04-24T13:03:34;18.60;99.90
23207;DHT22;11773;52.570;13.052;2023-04-24T13:06:03;18.80;99.90
23207;DHT22;11773;52.570;13.052;2023-04-24T13:08:33;18.70;99.90
23207;DHT22;11773;52.570;13.052;2023-04-24T13:11:03;19.00;99.90
23207;DHT22;11773;52.570;13.052;2023-04-24T13:13:32;19.20;99.90
23207;DHT22;11773;52.570;13.052;2023-04-24T13:16:02;19.10;99.90
23207;DHT22;11773;52.570;13.052;2023-04-24T13:18:31;19.30;99.90
23207;DHT22;11773;52.570;13.052;2023-04-24T13:21:01;19.00;99.90
23207;DHT22;11773;52.570;13.052;2023-04-24T13:23:30;19.10;99.90
23207;DHT22;11773;52.570;13.052;2023-04-24T13:26:00;19.10;99.90
23207;DHT22;11773;52.570;13.052;2023-04-24T13:28:29;19.20;99.90
23207;DHT22;11773;52.570;13.052;2023-04-24T13:30:59;19.30;99.90
23207;DHT22;11773;52.570;13.052;2023-04-24T13:33:29;19.50;99.90
23207;DHT22;11773;52.570;13.052;2023-04-24T13:35:58;19.40;99.90
23207;DHT22;11773;52.570;13.052;2023-04-24T13:38:28;19.40;99.90
23207;DHT22;11773;52.570;13.052;2023-04-24T13:40:57;19.30;99.90
23207;DHT22;11773;52.570;13.052;2023-04-24T13:43:27;19.30;99.90
23207;DHT22;11773;52.570;13.052;2023-04-24T13:45:57;19.50;99.90
23207;DHT22;11773;52.570;13.052;2023-04-24T13:48:29;19.70;99.90
23207;DHT22;11773;52.570;13.052;2023-04-24T13:50:58;19.60;99.90
23207;DHT22;11773;52.570;13.052;2023-04-24T13:53:28;19.50;99.90
23207;DHT22;11773;52.570;13.052;2023-04-24T13:55:57;19.50;99.90
23207;DHT22;11773;52.570;13.052;2023-04-24T13:58:27;19.80;99.90
23207;DHT22;11773;52.570;13.052;2023-04-24T14:00:57;19.80;99.90
23207;DHT22;11773;52.570;13.052;2023-04-24T14:03:26;19.80;99.90
23207;DHT22;11773;52.570;13.052;2023-04-24T14:05:56;19.70;99.90
23207;DHT22;11773;52.570;13.052;2023-04-24T14:08:26;19.60;99.90
23207;DHT22;11773;52.570;13.052;2023-04-24T14:10:55;19.80;99.90
23207;DHT22;11773;52.570;13.052;2023-04-24T14:13:25;19.60;99.90
23207;DHT22;11773;52.570;13.052;2023-04-24T14:15:55;19.50;99.90
23207;DHT22;11773;52.570;13.052;2023-04-24T14:18:24;19.50;99.90
23207;DHT22;11773;52.570;13.052;2023-04-24T14:20:54;19.50;99.90
23207;DHT22;11773;52.570;13.052;2023-04-24T14:23:24;19.40;99.90
23207;DHT22;11773;52.570;13.052;2023-04-24T14:25:53;19.50;99.90
23207;DHT22;11773;52.570;13.052;2023-04-24T14:28:24;19.20;99.90
23207;DHT22;11773;52.570;13.052;2023-04-24T14:30:54;19.10;99.90
23207;DHT22;11773;52.570;13.052;2023-04-24T14:33:24;18.90;99.90
23207;DHT22;11773;52.570;13.052;2023-04-24T14:35:53;18.90;99.90
23207;DHT22;11773;52.570;13.052;2023-04-24T14:38:23;18.90;99.90
23207;DHT22;11773;52.570;13.052;2023-04-24T14:40:52;18.80;99.90
23207;DHT22;11773;52.570;13.052;2023-04-24T14:43:24;18.90;99.90
23207;DHT22;11773;52.570;13.052;2023-04-24T14:45:53;18.80;99.90
23207;DHT22;11773;52.570;13.052;2023-04-24T14:48:23;19.00;99.90
23207;DHT22;11773;52.570;13.052;2023-04-24T14:50:52;19.00;99.90
23207;DHT22;11773;52.570;13.052;2023-04-24T14:53:22;19.00;99.90
23207;DHT22;11773;52.570;13.052;2023-04-24T14:55:51;19.00;99.90
23207;DHT22;11773;52.570;13.052;2023-04-24T14:58:21;18.80;99.90
23207;DHT22;11773;52.570;13.052;2023-04-24T15:00:51;18.60;99.90
23207;DHT22;11773;52.570;13.052;2023-04-24T15:03:22;18.50;99.90
23207;DHT22;11773;52.570;13.052;2023-04-24T15:05:52;18.50;99.90
23207;DHT22;11773;52.570;13.052;2023-04-24T15:08:21;18.50;99.90
23207;DHT22;11773;52.570;13.052;2023-04-24T15:10:51;18.40;99.90
23207;DHT22;11773;52.570;13.052;2023-04-24T15:13:21;18.50;99.90
23207;DHT22;11773;52.570;13.052;2023-04-24T15:15:50;18.50;99.90
23207;DHT22;11773;52.570;13.052;2023-04-24T15:18:20;18.50;99.90
23207;DHT22;11773;52.570;13.052;2023-04-24T15:20:49;18.50;99.90
23207;DHT22;11773;52.570;13.052;2023-04-24T15:23:19;18.30;99.90
23207;DHT22;11773;52.570;13.052;2023-04-24T15:25:49;18.50;99.90
23207;DHT22;11773;52.570;13.052;2023-04-24T15:28:18;18.40;99.90
23207;DHT22;11773;52.570;13.052;2023-04-24T15:30:49;18.40;99.90
23207;DHT22;11773;52.570;13.052;2023-04-24T15:33:19;18.50;99.90
23207;DHT22;11773;52.570;13.052;2023-04-24T15:35:49;18.70;99.90
23207;DHT22;11773;52.570;13.052;2023-04-24T15:38:18;18.50;99.90